createdAt,value
2022-11-15T00:01:19.715Z,2.83
2022-11-15T00:03:26.443Z,3.13
2022-11-15T00:05:28.080Z,4.05
2022-11-15T00:07:54.161Z,4.13
2022-11-15T00:09:51.374Z,2.90
2022-11-15T00:11:53.330Z,2.88
2022-11-15T00:13:58.722Z,4.03
2022-11-15T00:16:01.747Z,3.42
2022-11-15T00:18:04.612Z,3.50
2022-11-15T00:20:06.798Z,2.28
2022-11-15T00:22:08.418Z,3.70
2022-11-15T00:24:10.345Z,3.42
2022-11-15T00:26:14.462Z,2.88
2022-11-15T00:28:16.177Z,6.05
2022-11-15T00:30:17.959Z,4.38
2022-11-15T00:32:19.614Z,3.85
2022-11-15T00:34:21.253Z,3.40
2022-11-15T00:36:22.888Z,4.68
2022-11-15T00:38:24.535Z,3.45
2022-11-15T00:40:26.461Z,3.40
2022-11-15T00:42:28.110Z,3.42
2022-11-15T00:44:29.764Z,3.45
2022-11-15T00:46:31.383Z,3.25
2022-11-15T00:48:33.637Z,3.00
2022-11-15T00:50:35.278Z,3.47
2022-11-15T00:52:36.968Z,2.92
2022-11-15T00:54:38.620Z,4.53
2022-11-15T00:56:40.221Z,3.47
2022-11-15T00:58:41.869Z,2.90
2022-11-15T01:00:43.505Z,8.07
2022-11-15T01:02:45.146Z,3.00
2022-11-15T01:04:46.846Z,3.47
2022-11-15T01:06:48.597Z,3.00
2022-11-15T01:08:50.312Z,2.95
2022-11-15T01:10:51.916Z,3.45
2022-11-15T01:12:53.562Z,2.53
2022-11-15T01:14:55.285Z,3.20
2022-11-15T01:16:56.933Z,2.80
2022-11-15T01:18:58.612Z,2.40
2022-11-15T01:21:00.418Z,5.78
2022-11-15T01:23:02.055Z,2.97
2022-11-15T01:25:04.026Z,2.15
2022-11-15T01:27:05.719Z,3.65
2022-11-15T01:29:07.365Z,2.42
2022-11-15T01:31:14.253Z,2.83
2022-11-15T01:33:15.873Z,2.97
2022-11-15T01:35:17.478Z,2.90
2022-11-15T01:37:19.108Z,2.78
2022-11-15T01:39:20.726Z,3.65
2022-11-15T01:41:25.173Z,2.25
2022-11-15T01:43:29.892Z,3.35
2022-11-15T01:45:31.736Z,2.55
2022-11-15T01:47:37.711Z,3.30
2022-11-15T01:49:40.789Z,3.22
2022-11-15T01:51:42.401Z,2.20
2022-11-15T01:53:46.932Z,2.05
2022-11-15T01:55:48.725Z,2.00
2022-11-15T01:57:55.102Z,2.63
2022-11-15T02:00:01.630Z,2.95
2022-11-15T02:02:03.495Z,2.03
2022-11-15T02:04:26.282Z,2.75
2022-11-15T02:06:27.958Z,2.40
2022-11-15T02:08:32.737Z,2.28
2022-11-15T02:10:34.340Z,2.58
2022-11-15T02:12:36.104Z,2.53
2022-11-15T02:14:40.392Z,2.03
2022-11-15T02:16:48.164Z,3.35
2022-11-15T02:18:54.074Z,1.85
2022-11-15T02:20:58.786Z,3.92
2022-11-15T02:23:00.455Z,2.17
2022-11-15T02:25:42.514Z,2.85
2022-11-15T02:27:59.261Z,2.95
2022-11-15T02:30:05.214Z,2.45
2022-11-15T02:32:09.785Z,2.25
2022-11-15T02:35:04.705Z,2.95
2022-11-15T02:37:27.932Z,2.60
2022-11-15T02:39:38.362Z,2.10
2022-11-15T02:41:45.823Z,2.45
2022-11-15T02:44:06.402Z,2.33
2022-11-15T02:46:14.485Z,2.33
2022-11-15T02:48:16.852Z,2.42
2022-11-15T02:50:20.532Z,2.47
2022-11-15T02:52:24.194Z,1.80
2022-11-15T02:54:32.506Z,2.80
2022-11-15T02:56:34.244Z,2.72
2022-11-15T02:58:54.343Z,3.17
2022-11-15T03:01:16.126Z,2.35
2022-11-15T03:03:36.062Z,1.73
2022-11-15T03:06:05.799Z,4.20
2022-11-15T03:08:10.182Z,2.20
2022-11-15T03:10:36.109Z,2.08
2022-11-15T03:12:56.181Z,2.22
2022-11-15T03:15:02.502Z,5.60
2022-11-15T03:17:07.210Z,2.45
2022-11-15T03:19:18.060Z,2.10
2022-11-15T03:21:20.944Z,1.98
2022-11-15T03:23:23.040Z,2.47
2022-11-15T03:25:27.263Z,2.08
2022-11-15T03:27:34.398Z,2.40
2022-11-15T03:29:40.238Z,2.25
2022-11-15T03:31:50.898Z,2.55
2022-11-15T03:33:54.646Z,2.20
2022-11-15T03:35:56.348Z,3.38
2022-11-15T03:38:17.123Z,3.53
2022-11-15T03:40:24.624Z,2.17
2022-11-15T03:42:37.864Z,1.75
2022-11-15T03:44:48.495Z,3.03
2022-11-15T03:46:58.761Z,2.10
2022-11-15T03:49:13.300Z,3.97
2022-11-15T03:51:15.339Z,2.00
2022-11-15T03:53:17.212Z,2.45
2022-11-15T03:55:20.649Z,1.60
2022-11-15T03:57:22.862Z,2.25
2022-11-15T03:59:24.607Z,1.73
2022-11-15T04:01:26.427Z,7.13
2022-11-15T04:03:28.232Z,2.42
2022-11-15T04:05:29.971Z,2.03
2022-11-15T04:07:31.704Z,2.40
2022-11-15T04:09:33.505Z,2.67
2022-11-15T04:11:35.143Z,2.17
2022-11-15T04:13:36.793Z,2.17
2022-11-15T04:15:38.476Z,2.17
2022-11-15T04:17:48.423Z,2.10
2022-11-15T04:20:08.489Z,2.53
2022-11-15T04:22:28.630Z,2.30
2022-11-15T04:24:30.204Z,2.10
2022-11-15T04:26:31.916Z,1.77
2022-11-15T04:28:34.087Z,1.70
2022-11-15T04:30:35.875Z,1.85
2022-11-15T04:32:37.510Z,1.80
2022-11-15T04:34:39.505Z,2.47
2022-11-15T04:36:59.663Z,1.60
2022-11-15T04:39:01.350Z,1.52
2022-11-15T04:41:03.527Z,1.80
2022-11-15T04:43:05.723Z,1.73
2022-11-15T04:45:07.776Z,1.63
2022-11-15T04:47:09.487Z,1.88
2022-11-15T04:49:11.431Z,3.92
2022-11-15T04:51:13.075Z,2.15
2022-11-15T04:53:14.851Z,2.10
2022-11-15T04:55:16.912Z,2.30
2022-11-15T04:57:18.769Z,2.50
2022-11-15T04:59:20.468Z,1.63
2022-11-15T05:01:25.302Z,1.73
2022-11-15T05:03:45.788Z,2.15
2022-11-15T05:05:47.630Z,2.03
2022-11-15T05:07:49.322Z,1.92
2022-11-15T05:09:51.025Z,2.13
2022-11-15T05:11:52.702Z,2.15
2022-11-15T05:13:54.458Z,1.63
2022-11-15T05:15:56.159Z,2.10
2022-11-15T05:18:01.464Z,1.80
2022-11-15T05:20:03.218Z,2.25
2022-11-15T05:22:04.902Z,1.48
2022-11-15T05:24:07.271Z,2.42
2022-11-15T05:26:09.859Z,1.33
2022-11-15T05:28:11.551Z,1.55
2022-11-15T05:30:13.239Z,2.05
2022-11-15T05:32:15.142Z,1.50
2022-11-15T05:34:18.289Z,1.48
2022-11-15T05:36:33.448Z,2.70
2022-11-15T05:38:35.082Z,3.15
2022-11-15T05:40:36.762Z,2.25
2022-11-15T05:42:38.836Z,1.50
2022-11-15T05:44:46.009Z,2.40
2022-11-15T05:46:48.248Z,1.90
2022-11-15T05:48:51.497Z,1.75
2022-11-15T05:50:53.749Z,1.98
2022-11-15T05:52:56.393Z,2.00
2022-11-15T05:55:02.187Z,1.60
2022-11-15T05:57:06.519Z,1.55
2022-11-15T05:59:09.674Z,1.42
2022-11-15T06:01:11.476Z,2.00
2022-11-15T06:03:15.148Z,1.92
2022-11-15T06:05:16.958Z,1.58
2022-11-15T06:07:19.021Z,4.15
2022-11-15T06:09:20.798Z,1.75
2022-11-15T06:11:22.859Z,1.80
2022-11-15T06:13:24.700Z,1.58
2022-11-15T06:15:30.595Z,2.05
2022-11-15T06:17:32.855Z,1.70
2022-11-15T06:19:34.656Z,3.05
2022-11-15T06:21:36.571Z,1.60
2022-11-15T06:23:38.213Z,1.48
2022-11-15T06:25:40.113Z,1.38
2022-11-15T06:27:41.966Z,1.00
2022-11-15T06:29:43.586Z,1.95
2022-11-15T06:31:45.396Z,2.55
2022-11-15T06:33:47.823Z,1.70
2022-11-15T06:35:49.532Z,1.67
2022-11-15T06:37:51.345Z,1.30
2022-11-15T06:39:53.140Z,1.65
2022-11-15T06:41:54.956Z,1.80
2022-11-15T06:43:57.949Z,2.55
2022-11-15T06:46:00.663Z,2.45
2022-11-15T06:48:02.325Z,1.73
2022-11-15T06:50:04.236Z,1.92
2022-11-15T06:52:06.015Z,2.03
2022-11-15T06:54:07.762Z,1.40
2022-11-15T06:56:10.347Z,2.00
2022-11-15T06:58:12.120Z,2.78
2022-11-15T07:00:14.710Z,1.85
2022-11-15T07:02:16.423Z,1.88
2022-11-15T07:04:18.319Z,1.65
2022-11-15T07:06:19.980Z,1.65
2022-11-15T07:08:23.019Z,2.78
2022-11-15T07:10:25.821Z,1.80
2022-11-15T07:12:27.615Z,1.75
2022-11-15T07:14:29.316Z,2.10
2022-11-15T07:16:31.070Z,2.80
2022-11-15T07:18:35.572Z,1.50
2022-11-15T07:20:37.370Z,1.65
2022-11-15T07:22:39.011Z,1.85
2022-11-15T07:24:40.749Z,2.20
2022-11-15T07:26:42.487Z,1.67
2022-11-15T07:28:44.474Z,2.40
2022-11-15T07:30:46.615Z,1.63
2022-11-15T07:32:48.280Z,2.60
2022-11-15T07:34:49.984Z,2.22
2022-11-15T07:36:51.824Z,2.25
2022-11-15T07:38:53.672Z,3.33
2022-11-15T07:41:00.192Z,4.53
2022-11-15T07:43:03.249Z,2.28
2022-11-15T07:45:06.138Z,2.92
2022-11-15T07:47:07.889Z,2.40
2022-11-15T07:49:09.611Z,3.03
2022-11-15T07:51:15.659Z,2.60
2022-11-15T07:53:17.573Z,2.33
2022-11-15T07:55:19.556Z,2.33
2022-11-15T07:57:21.370Z,2.75
2022-11-15T07:59:23.056Z,2.33
2022-11-15T08:01:24.830Z,2.38
2022-11-15T08:03:26.658Z,2.53
2022-11-15T08:05:28.412Z,2.35
2022-11-15T08:07:31.595Z,2.53
2022-11-15T08:09:42.171Z,2.42
2022-11-15T08:11:43.943Z,2.92
2022-11-15T08:13:45.653Z,2.80
2022-11-15T08:15:47.402Z,3.65
2022-11-15T08:17:49.066Z,3.08
2022-11-15T08:19:50.708Z,1.63
2022-11-15T08:21:52.508Z,2.75
2022-11-15T08:23:54.337Z,1.63
2022-11-15T08:26:05.771Z,1.70
2022-11-15T08:28:09.026Z,2.00
2022-11-15T08:30:12.139Z,1.38
2022-11-15T08:32:14.063Z,1.75
2022-11-15T08:34:15.887Z,5.95
2022-11-15T08:36:18.195Z,1.60
2022-11-15T08:38:30.389Z,2.10
2022-11-15T08:40:32.450Z,2.20
2022-11-15T08:42:34.616Z,1.90
2022-11-15T08:44:36.326Z,2.53
2022-11-15T08:46:38.180Z,2.33
2022-11-15T08:48:40.282Z,2.47
2022-11-15T08:50:41.950Z,2.17
2022-11-15T08:52:43.813Z,2.35
2022-11-15T08:54:45.604Z,3.38
2022-11-15T08:56:47.504Z,1.77
2022-11-15T08:58:55.268Z,2.60
2022-11-15T09:00:57.017Z,2.13
2022-11-15T09:02:58.690Z,1.80
2022-11-15T09:05:00.371Z,1.73
2022-11-15T09:07:02.123Z,1.92
2022-11-15T09:09:04.116Z,2.53
2022-11-15T09:11:16.133Z,1.70
2022-11-15T09:13:18.188Z,1.48
2022-11-15T09:15:20.758Z,2.30
2022-11-15T09:17:24.880Z,2.13
2022-11-15T09:19:26.977Z,2.22
2022-11-15T09:21:30.071Z,3.58
2022-11-15T09:23:31.844Z,1.67
2022-11-15T09:25:33.881Z,2.20
2022-11-15T09:27:35.960Z,1.92
2022-11-15T09:29:37.634Z,1.90
2022-11-15T09:31:39.348Z,1.58
2022-11-15T09:33:41.083Z,1.60
2022-11-15T09:35:42.740Z,2.97
2022-11-15T09:37:44.635Z,4.10
2022-11-15T09:39:46.233Z,1.83
2022-11-15T09:41:59.419Z,5.13
2022-11-15T09:44:10.179Z,1.75
2022-11-15T09:46:16.798Z,2.08
2022-11-15T09:49:12.171Z,2.22
2022-11-15T09:51:23.094Z,1.95
2022-11-15T09:56:22.246Z,2.28
2022-11-15T09:59:06.309Z,1.60
2022-11-15T10:01:18.171Z,2.92
2022-11-15T10:03:34.623Z,1.45
2022-11-15T10:05:47.623Z,1.63
2022-11-15T10:08:12.278Z,2.58
2022-11-15T10:10:18.816Z,2.10
2022-11-15T10:12:28.525Z,2.22
2022-11-15T10:14:31.547Z,1.17
2022-11-15T10:16:48.444Z,2.13
2022-11-15T10:19:04.865Z,1.42
2022-11-15T10:21:22.235Z,1.77
2022-11-15T10:23:24.416Z,1.92
2022-11-15T10:25:30.615Z,1.60
2022-11-15T10:27:32.873Z,1.40
2022-11-15T10:29:34.673Z,1.40
2022-11-15T10:31:40.578Z,1.52
2022-11-15T10:33:42.299Z,1.00
2022-11-15T10:35:44.189Z,1.38
2022-11-15T10:37:46.070Z,1.20
2022-11-15T10:40:04.645Z,1.25
2022-11-15T10:42:18.456Z,1.20
2022-11-15T10:44:20.291Z,0.88
2022-11-15T10:46:45.479Z,1.13
2022-11-15T10:48:46.327Z,1.00
2022-11-15T10:50:48.998Z,0.90
2022-11-15T10:52:51.184Z,0.80
2022-11-15T10:55:13.097Z,1.10
2022-11-15T10:57:16.976Z,1.13
2022-11-15T10:59:25.899Z,1.30
2022-11-15T11:01:30.768Z,0.90
2022-11-15T11:03:38.737Z,0.70
2022-11-15T11:05:43.082Z,1.25
2022-11-15T11:07:57.719Z,1.60
2022-11-15T11:10:49.623Z,1.20
2022-11-15T11:12:42.748Z,1.00
2022-11-15T11:14:44.494Z,1.08
2022-11-15T11:16:51.092Z,1.05
2022-11-15T11:19:34.453Z,0.80
2022-11-15T11:21:41.224Z,1.90
2022-11-15T11:24:20.217Z,3.03
2022-11-15T11:26:47.411Z,0.70
2022-11-15T11:29:04.152Z,1.30
2022-11-15T11:31:30.298Z,0.75
2022-11-15T11:33:44.432Z,2.25
2022-11-15T11:36:13.040Z,1.00
2022-11-15T11:38:43.879Z,1.85
2022-11-15T11:40:51.794Z,1.08
2022-11-15T11:43:06.364Z,1.17
2022-11-15T11:45:35.886Z,0.75
2022-11-15T11:47:41.491Z,0.70
2022-11-15T11:49:53.288Z,3.08
2022-11-15T11:52:05.688Z,1.95
2022-11-15T11:54:13.356Z,1.83
2022-11-15T11:56:35.148Z,0.82
2022-11-15T11:58:45.256Z,0.80
2022-11-15T12:01:13.165Z,0.90
2022-11-15T12:03:48.525Z,1.00
2022-11-15T12:06:02.795Z,1.20
2022-11-15T12:08:49.316Z,0.80
2022-11-15T12:10:55.770Z,0.82
2022-11-15T12:13:08.400Z,0.93
2022-11-15T12:15:10.087Z,0.95
2022-11-15T12:17:12.919Z,1.08
2022-11-15T12:19:16.197Z,0.70
2022-11-15T12:21:39.811Z,1.50
2022-11-15T12:23:55.228Z,0.70
2022-11-15T12:26:07.347Z,1.08
2022-11-15T12:29:05.820Z,1.20
2022-11-15T12:31:20.855Z,0.70
2022-11-15T12:33:39.130Z,0.77
2022-11-15T12:35:43.884Z,0.60
2022-11-15T12:37:51.046Z,0.70
2022-11-15T12:40:11.448Z,0.55
2022-11-15T12:42:13.250Z,1.20
2022-11-15T12:44:33.879Z,0.55
2022-11-15T12:46:41.592Z,0.60
2022-11-15T12:48:43.236Z,0.75
2022-11-15T12:50:57.321Z,0.60
2022-11-15T12:53:23.819Z,0.68
2022-11-15T12:55:33.950Z,1.00
2022-11-15T12:57:40.481Z,0.63
2022-11-15T12:59:51.207Z,0.70
2022-11-15T13:01:57.487Z,2.33
2022-11-15T13:04:17.753Z,1.90
2022-11-15T13:06:41.504Z,0.30
2022-11-15T13:08:48.551Z,0.40
2022-11-15T13:10:50.288Z,0.60
2022-11-15T13:12:54.847Z,0.70
2022-11-15T13:15:00.070Z,0.63
2022-11-15T13:17:02.049Z,0.70
2022-11-15T13:19:04.386Z,0.70
2022-11-15T13:21:38.869Z,0.77
2022-11-15T13:23:40.554Z,0.80
2022-11-15T13:26:06.764Z,0.60
2022-11-15T13:28:17.376Z,0.70
2022-11-15T13:30:27.738Z,0.82
2022-11-15T13:32:29.378Z,0.70
2022-11-15T13:36:56.591Z,0.52
2022-11-15T13:39:15.870Z,0.70
2022-11-15T13:41:17.456Z,0.70
2022-11-15T13:43:22.083Z,0.57
2022-11-15T13:45:24.223Z,0.85
2022-11-15T13:47:30.096Z,1.80
2022-11-15T13:49:33.366Z,0.70
2022-11-15T13:51:36.806Z,0.80
2022-11-15T13:53:41.583Z,0.70
2022-11-15T13:55:43.288Z,1.10
2022-11-15T13:57:51.837Z,0.70
2022-11-15T13:59:56.068Z,0.55
2022-11-15T14:02:00.490Z,0.80
2022-11-15T14:04:02.410Z,0.70
2022-11-15T14:06:15.912Z,1.00
2022-11-15T14:08:20.531Z,0.75
2022-11-15T14:10:31.836Z,0.50
2022-11-15T14:12:35.396Z,2.58
2022-11-15T14:14:46.286Z,1.23
2022-11-15T14:16:59.098Z,1.55
2022-11-15T14:19:00.856Z,0.70
2022-11-15T14:21:09.220Z,0.70
2022-11-15T14:23:28.963Z,0.85
2022-11-15T14:25:32.600Z,0.52
2022-11-15T14:27:34.944Z,0.90
2022-11-15T14:29:36.584Z,1.20
2022-11-15T14:31:43.503Z,1.50
2022-11-15T14:33:45.462Z,0.57
2022-11-15T14:35:48.636Z,0.55
2022-11-15T14:37:50.558Z,0.63
2022-11-15T14:39:52.636Z,0.70
2022-11-15T14:41:54.277Z,0.68
2022-11-15T14:43:56.056Z,1.08
2022-11-15T14:45:57.790Z,0.70
2022-11-15T14:47:59.431Z,1.00
2022-11-15T14:50:01.073Z,0.98
2022-11-15T14:52:04.650Z,0.60
2022-11-15T14:54:10.737Z,1.02
2022-11-15T14:56:13.186Z,0.65
2022-11-15T14:58:14.833Z,4.75
2022-11-15T15:00:17.336Z,0.80
2022-11-15T15:02:27.839Z,0.80
2022-11-15T15:04:29.707Z,0.80
2022-11-15T15:06:32.182Z,1.27
2022-11-15T15:08:34.178Z,1.05
2022-11-15T15:10:40.964Z,1.08
2022-11-15T15:12:43.649Z,1.23
2022-11-15T15:14:46.368Z,1.30
2022-11-15T15:16:48.040Z,1.00
2022-11-15T15:18:49.811Z,1.45
2022-11-15T15:21:01.169Z,1.27
2022-11-15T15:23:02.854Z,1.27
2022-11-15T15:25:09.044Z,1.48
2022-11-15T15:27:11.087Z,1.55
2022-11-15T15:29:12.858Z,1.83
2022-11-15T15:31:14.530Z,1.40
2022-11-15T15:33:16.582Z,1.58
2022-11-15T15:35:19.541Z,1.30
2022-11-15T15:37:27.499Z,1.10
2022-11-15T15:39:29.244Z,1.02
2022-11-15T15:41:30.939Z,1.75
2022-11-15T15:43:32.584Z,1.48
2022-11-15T15:45:34.512Z,1.67
2022-11-15T15:47:36.370Z,2.00
2022-11-15T15:49:38.185Z,1.40
2022-11-15T15:51:39.814Z,1.63
2022-11-15T15:53:41.439Z,1.45
2022-11-15T15:55:43.249Z,1.25
2022-11-15T15:57:45.210Z,1.55
2022-11-15T15:59:46.964Z,1.23
2022-11-15T16:01:48.678Z,2.20
2022-11-15T16:03:50.329Z,1.20
2022-11-15T16:05:52.334Z,1.05
2022-11-15T16:07:54.292Z,1.15
2022-11-15T16:10:02.438Z,1.27
2022-11-15T16:12:04.144Z,0.63
2022-11-15T16:14:05.882Z,1.23
2022-11-15T16:16:10.373Z,0.85
2022-11-15T16:18:17.891Z,0.98
2022-11-15T16:20:43.754Z,1.05
2022-11-15T16:22:45.458Z,1.00
2022-11-15T16:24:47.264Z,2.22
2022-11-15T16:26:49.645Z,2.05
2022-11-15T16:28:51.584Z,2.15
2022-11-15T16:31:01.997Z,1.52
2022-11-15T16:33:03.755Z,1.30
2022-11-15T16:35:05.807Z,1.70
2022-11-15T16:37:21.600Z,1.10
2022-11-15T16:39:23.764Z,2.47
2022-11-15T16:41:25.617Z,2.10
2022-11-15T16:43:27.344Z,2.65
2022-11-15T16:45:29.660Z,1.20
2022-11-15T16:47:31.418Z,1.70
2022-11-15T16:49:33.142Z,0.95
2022-11-15T16:51:34.770Z,0.80
2022-11-15T16:53:36.752Z,0.93
2022-11-15T16:55:38.484Z,1.35
2022-11-15T16:57:40.235Z,1.48
2022-11-15T16:59:41.881Z,0.85
2022-11-15T17:01:50.767Z,1.25
2022-11-15T17:03:53.074Z,1.60
2022-11-15T17:05:58.468Z,1.13
2022-11-15T17:08:00.163Z,1.00
2022-11-15T17:10:01.893Z,1.05
2022-11-15T17:12:03.633Z,0.80
2022-11-15T17:14:05.256Z,0.93
2022-11-15T17:16:08.774Z,1.10
2022-11-15T17:18:15.491Z,0.88
2022-11-15T17:20:18.439Z,0.95
2022-11-15T17:22:20.689Z,0.65
2022-11-15T17:24:22.369Z,0.70
2022-11-15T17:26:30.340Z,0.90
2022-11-15T17:28:34.469Z,0.98
2022-11-15T17:30:36.368Z,1.30
2022-11-15T17:32:38.191Z,1.08
2022-11-15T17:34:39.843Z,1.35
2022-11-15T17:36:41.446Z,1.00
2022-11-15T17:38:43.222Z,1.65
2022-11-15T17:40:44.876Z,2.13
2022-11-15T17:42:46.594Z,4.03
2022-11-15T17:44:48.257Z,1.23
2022-11-15T17:46:49.922Z,1.85
2022-11-15T17:48:51.533Z,1.40
2022-11-15T17:50:55.933Z,1.15
2022-11-15T17:52:59.444Z,1.65
2022-11-15T17:55:01.091Z,1.00
2022-11-15T17:57:02.768Z,1.17
2022-11-15T17:59:09.103Z,1.33
2022-11-15T18:01:31.514Z,1.13
2022-11-15T18:03:37.440Z,1.77
2022-11-15T18:05:39.410Z,1.40
2022-11-15T18:07:41.033Z,1.42
2022-11-15T18:09:44.228Z,1.33
2022-11-15T18:11:50.593Z,1.10
2022-11-15T18:13:56.991Z,1.08
2022-11-15T18:16:02.640Z,1.27
2022-11-15T18:18:04.418Z,1.20
2022-11-15T18:20:06.652Z,0.90
2022-11-15T18:22:10.259Z,1.67
2022-11-15T18:24:12.102Z,1.15
2022-11-15T18:26:15.367Z,1.02
2022-11-15T18:28:16.994Z,0.95
2022-11-15T18:30:18.676Z,0.95
2022-11-15T18:32:20.328Z,1.05
2022-11-15T18:34:28.831Z,1.05
2022-11-15T18:36:31.124Z,0.82
2022-11-15T18:38:33.008Z,1.85
2022-11-15T18:40:35.767Z,1.05
2022-11-15T18:42:37.683Z,1.52
2022-11-15T18:44:39.324Z,2.13
2022-11-15T18:46:42.100Z,1.52
2022-11-15T18:48:44.831Z,1.85
2022-11-15T18:50:46.484Z,1.30
2022-11-15T18:52:48.077Z,1.77
2022-11-15T18:54:49.695Z,2.00
2022-11-15T18:56:51.402Z,1.48
2022-11-15T18:58:57.448Z,1.58
2022-11-15T19:01:03.303Z,1.50
2022-11-15T19:03:05.010Z,1.65
2022-11-15T19:05:07.066Z,1.50
2022-11-15T19:07:08.845Z,1.38
2022-11-15T19:09:11.975Z,1.30
2022-11-15T19:11:13.578Z,1.23
2022-11-15T19:13:15.473Z,1.60
2022-11-15T19:15:17.300Z,2.08
2022-11-15T19:17:19.010Z,1.20
2022-11-15T19:19:25.500Z,1.42
2022-11-15T19:21:28.158Z,1.27
2022-11-15T19:23:33.859Z,1.30
2022-11-15T19:25:35.667Z,1.33
2022-11-15T19:27:38.383Z,1.00
2022-11-15T19:29:40.847Z,1.33
2022-11-15T19:31:42.948Z,1.25
2022-11-15T19:33:45.415Z,1.88
2022-11-15T19:35:47.735Z,1.55
2022-11-15T19:37:49.452Z,1.38
2022-11-15T19:39:51.171Z,1.60
2022-11-15T19:41:52.852Z,1.65
2022-11-15T19:43:54.447Z,2.20
2022-11-15T19:46:02.077Z,1.65
2022-11-15T19:48:04.422Z,2.22
2022-11-15T19:50:06.573Z,2.47
2022-11-15T19:52:08.269Z,3.08
2022-11-15T19:54:10.657Z,3.17
2022-11-15T19:56:14.587Z,2.67
2022-11-15T19:58:16.231Z,3.25
2022-11-15T20:00:18.468Z,2.92
2022-11-15T20:02:20.149Z,2.60
2022-11-15T20:04:22.313Z,5.22
2022-11-15T20:06:27.456Z,1.80
2022-11-15T20:08:29.200Z,8.75
2022-11-15T20:10:30.835Z,1.80
2022-11-15T20:12:32.565Z,2.00
2022-11-15T20:14:34.244Z,2.15
2022-11-15T20:16:36.078Z,2.20
2022-11-15T20:18:37.741Z,1.83
2022-11-15T20:20:39.666Z,1.85
2022-11-15T20:22:41.403Z,1.70
2022-11-15T20:24:43.042Z,2.20
2022-11-15T20:26:44.737Z,1.55
2022-11-15T20:28:48.166Z,1.63
2022-11-15T20:30:52.935Z,1.90
2022-11-15T20:32:54.550Z,1.88
2022-11-15T20:34:58.952Z,2.03
2022-11-15T20:37:00.600Z,2.15
2022-11-15T20:39:02.408Z,1.60
2022-11-15T20:41:04.873Z,1.60
2022-11-15T20:43:07.305Z,1.48
2022-11-15T20:45:09.210Z,0.90
2022-11-15T20:47:11.053Z,1.83
2022-11-15T20:49:12.618Z,1.30
2022-11-15T20:51:16.712Z,1.40
2022-11-15T20:53:19.852Z,2.28
2022-11-15T20:55:21.888Z,2.22
2022-11-15T20:57:24.179Z,2.30
2022-11-15T20:59:25.807Z,1.92
2022-11-15T21:01:27.685Z,1.70
2022-11-15T21:03:29.444Z,1.77
2022-11-15T21:05:31.276Z,2.65
2022-11-15T21:07:32.955Z,2.25
2022-11-15T21:09:53.184Z,2.97
2022-11-15T21:12:13.493Z,2.03
2022-11-15T21:14:15.163Z,2.13
2022-11-15T21:16:17.824Z,1.17
2022-11-15T21:18:20.266Z,2.00
2022-11-15T21:20:21.950Z,1.30
2022-11-15T21:22:23.677Z,1.38
2022-11-15T21:24:25.652Z,1.70
2022-11-15T21:26:27.403Z,1.50
2022-11-15T21:28:29.064Z,1.50
2022-11-15T21:30:30.828Z,1.05
2022-11-15T21:32:32.522Z,1.65
2022-11-15T21:34:35.230Z,1.98
2022-11-15T21:36:36.865Z,3.42
2022-11-15T21:38:38.594Z,3.00
2022-11-15T21:40:40.292Z,5.07
2022-11-15T21:42:42.186Z,4.20
2022-11-15T21:44:43.881Z,3.28
2022-11-15T21:46:47.609Z,1.73
2022-11-15T21:48:49.245Z,1.95
2022-11-15T21:51:02.718Z,1.85
2022-11-15T21:53:04.299Z,1.30
2022-11-15T21:55:06.309Z,2.08
2022-11-15T21:57:08.277Z,1.30
2022-11-15T21:59:10.284Z,6.50
2022-11-15T22:01:31.726Z,2.25
2022-11-15T22:03:33.526Z,4.90
2022-11-15T22:05:35.235Z,9.27
2022-11-15T22:07:36.943Z,11.90
2022-11-15T22:09:38.995Z,17.65
2022-11-15T22:11:40.700Z,14.93
2022-11-15T22:13:42.665Z,9.25
2022-11-15T22:15:47.744Z,6.28
2022-11-15T22:17:58.240Z,3.65
2022-11-15T22:20:07.767Z,1.83
2022-11-15T22:22:21.559Z,1.60
2022-11-15T22:24:23.690Z,1.58
2022-11-15T22:26:26.180Z,1.63
2022-11-15T22:28:28.348Z,1.23
2022-11-15T22:30:30.189Z,1.98
2022-11-15T22:32:32.128Z,1.23
2022-11-15T22:34:33.826Z,2.15
2022-11-15T22:36:52.411Z,1.45
2022-11-15T22:38:57.324Z,2.25
2022-11-15T22:40:59.826Z,2.38
2022-11-15T22:43:01.639Z,1.50
2022-11-15T22:45:03.799Z,1.42
2022-11-15T22:47:05.490Z,1.33
2022-11-15T22:49:09.209Z,0.90
2022-11-15T22:51:11.061Z,1.27
2022-11-15T22:53:12.716Z,1.60
2022-11-15T22:55:14.487Z,1.10
2022-11-15T22:57:16.195Z,3.05
2022-11-15T22:59:18.015Z,1.35
2022-11-15T23:01:24.515Z,1.35
2022-11-15T23:03:27.251Z,2.38
2022-11-15T23:05:29.324Z,1.10
2022-11-15T23:07:31.722Z,1.88
2022-11-15T23:09:33.468Z,1.50
2022-11-15T23:11:53.711Z,1.25
2022-11-15T23:13:55.702Z,1.35
2022-11-15T23:16:23.752Z,1.13
2022-11-15T23:18:25.597Z,1.40
2022-11-15T23:20:42.320Z,2.42
2022-11-15T23:22:48.097Z,1.50
2022-11-15T23:24:49.823Z,1.02
2022-11-15T23:26:57.060Z,1.30
2022-11-15T23:28:58.765Z,1.45
2022-11-15T23:31:24.139Z,2.30
2022-11-15T23:33:44.159Z,1.05
2022-11-15T23:35:54.396Z,1.23
2022-11-15T23:37:56.021Z,1.60
2022-11-15T23:39:57.687Z,1.50
2022-11-15T23:42:02.076Z,1.50
2022-11-15T23:44:07.949Z,1.45
2022-11-15T23:46:09.654Z,1.50
2022-11-15T23:48:11.736Z,1.92
2022-11-15T23:50:13.367Z,1.65
2022-11-15T23:52:15.770Z,1.50
2022-11-15T23:54:17.401Z,1.55
2022-11-15T23:56:20.332Z,1.70
2022-11-15T23:58:22.072Z,1.80
